sensor_id;sensor_type;location;lat;lon;timestamp;P1;durP1;ratioP1;P2;durP2;ratioP2
22764;SDS011;11549;50.852;3.816;2023-04-25T00:00:47;37.05;;;16.10;;
22764;SDS011;11549;50.852;3.816;2023-04-25T00:03:16;36.63;;;16.42;;
22764;SDS011;11549;50.852;3.816;2023-04-25T00:05:45;29.30;;;14.80;;
22764;SDS011;11549;50.852;3.816;2023-04-25T00:08:14;34.55;;;14.27;;
22764;SDS011;11549;50.852;3.816;2023-04-25T00:10:43;37.13;;;15.20;;
22764;SDS011;11549;50.852;3.816;2023-04-25T00:13:11;35.60;;;14.85;;
22764;SDS011;11549;50.852;3.816;2023-04-25T00:15:39;41.25;;;14.88;;
22764;SDS011;11549;50.852;3.816;2023-04-25T00:18:09;36.05;;;13.88;;
22764;SDS011;11549;50.852;3.816;2023-04-25T00:20:38;33.30;;;13.07;;
22764;SDS011;11549;50.852;3.816;2023-04-25T00:23:13;31.50;;;13.55;;
22764;SDS011;11549;50.852;3.816;2023-04-25T00:25:43;31.98;;;13.45;;
22764;SDS011;11549;50.852;3.816;2023-04-25T00:28:12;29.35;;;12.57;;
22764;SDS011;11549;50.852;3.816;2023-04-25T00:30:42;30.00;;;12.55;;
22764;SDS011;11549;50.852;3.816;2023-04-25T00:33:10;29.80;;;11.15;;
22764;SDS011;11549;50.852;3.816;2023-04-25T00:35:40;27.95;;;10.75;;
22764;SDS011;11549;50.852;3.816;2023-04-25T00:38:09;25.25;;;10.30;;
22764;SDS011;11549;50.852;3.816;2023-04-25T00:40:38;28.73;;;10.80;;
22764;SDS011;11549;50.852;3.816;2023-04-25T00:43:06;26.63;;;10.75;;
22764;SDS011;11549;50.852;3.816;2023-04-25T00:45:34;27.40;;;9.95;;
22764;SDS011;11549;50.852;3.816;2023-04-25T00:48:06;25.35;;;11.07;;
22764;SDS011;11549;50.852;3.816;2023-04-25T00:50:34;27.23;;;11.10;;
22764;SDS011;11549;50.852;3.816;2023-04-25T00:53:05;31.50;;;11.10;;
22764;SDS011;11549;50.852;3.816;2023-04-25T00:55:36;31.95;;;10.80;;
22764;SDS011;11549;50.852;3.816;2023-04-25T00:58:04;25.65;;;10.23;;
22764;SDS011;11549;50.852;3.816;2023-04-25T01:00:33;25.48;;;10.25;;
22764;SDS011;11549;50.852;3.816;2023-04-25T01:03:01;25.48;;;9.20;;
22764;SDS011;11549;50.852;3.816;2023-04-25T01:05:31;25.58;;;8.93;;
22764;SDS011;11549;50.852;3.816;2023-04-25T01:07:59;23.52;;;8.68;;
22764;SDS011;11549;50.852;3.816;2023-04-25T01:10:29;21.73;;;8.48;;
22764;SDS011;11549;50.852;3.816;2023-04-25T01:12:57;24.15;;;8.07;;
22764;SDS011;11549;50.852;3.816;2023-04-25T01:15:26;22.52;;;7.40;;
22764;SDS011;11549;50.852;3.816;2023-04-25T01:17:54;19.45;;;7.38;;
22764;SDS011;11549;50.852;3.816;2023-04-25T01:20:23;27.35;;;7.93;;
22764;SDS011;11549;50.852;3.816;2023-04-25T01:22:54;21.45;;;8.25;;
22764;SDS011;11549;50.852;3.816;2023-04-25T01:25:23;21.00;;;7.38;;
22764;SDS011;11549;50.852;3.816;2023-04-25T01:27:51;19.67;;;7.30;;
22764;SDS011;11549;50.852;3.816;2023-04-25T01:30:20;18.38;;;7.55;;
22764;SDS011;11549;50.852;3.816;2023-04-25T01:32:48;22.38;;;7.50;;
22764;SDS011;11549;50.852;3.816;2023-04-25T01:35:17;24.50;;;7.88;;
22764;SDS011;11549;50.852;3.816;2023-04-25T01:37:46;21.23;;;7.82;;
22764;SDS011;11549;50.852;3.816;2023-04-25T01:40:16;14.45;;;7.05;;
22764;SDS011;11549;50.852;3.816;2023-04-25T01:42:46;15.15;;;6.88;;
22764;SDS011;11549;50.852;3.816;2023-04-25T01:45:14;16.85;;;7.03;;
22764;SDS011;11549;50.852;3.816;2023-04-25T01:47:43;21.63;;;8.05;;
22764;SDS011;11549;50.852;3.816;2023-04-25T01:50:16;19.27;;;7.28;;
22764;SDS011;11549;50.852;3.816;2023-04-25T01:52:45;15.77;;;7.07;;
22764;SDS011;11549;50.852;3.816;2023-04-25T01:55:13;17.50;;;7.55;;
22764;SDS011;11549;50.852;3.816;2023-04-25T01:57:44;18.80;;;7.53;;
22764;SDS011;11549;50.852;3.816;2023-04-25T02:00:12;20.50;;;7.45;;
22764;SDS011;11549;50.852;3.816;2023-04-25T02:02:41;20.50;;;8.60;;
22764;SDS011;11549;50.852;3.816;2023-04-25T02:05:10;23.50;;;8.25;;
22764;SDS011;11549;50.852;3.816;2023-04-25T02:07:38;23.48;;;8.30;;
22764;SDS011;11549;50.852;3.816;2023-04-25T02:10:06;21.00;;;8.48;;
22764;SDS011;11549;50.852;3.816;2023-04-25T02:12:35;19.42;;;7.97;;
22764;SDS011;11549;50.852;3.816;2023-04-25T02:15:06;20.70;;;7.93;;
22764;SDS011;11549;50.852;3.816;2023-04-25T02:17:35;20.02;;;8.32;;
22764;SDS011;11549;50.852;3.816;2023-04-25T02:20:04;23.02;;;9.10;;
22764;SDS011;11549;50.852;3.816;2023-04-25T02:22:33;21.33;;;8.15;;
22764;SDS011;11549;50.852;3.816;2023-04-25T02:25:01;23.00;;;8.55;;
22764;SDS011;11549;50.852;3.816;2023-04-25T02:27:31;23.73;;;9.20;;
22764;SDS011;11549;50.852;3.816;2023-04-25T02:29:59;25.20;;;8.32;;
22764;SDS011;11549;50.852;3.816;2023-04-25T02:32:29;21.13;;;8.43;;
22764;SDS011;11549;50.852;3.816;2023-04-25T02:34:57;21.45;;;7.93;;
22764;SDS011;11549;50.852;3.816;2023-04-25T02:37:30;19.40;;;8.02;;
22764;SDS011;11549;50.852;3.816;2023-04-25T02:39:59;19.13;;;8.38;;
22764;SDS011;11549;50.852;3.816;2023-04-25T02:42:27;22.83;;;8.27;;
22764;SDS011;11549;50.852;3.816;2023-04-25T02:44:55;21.52;;;8.75;;
22764;SDS011;11549;50.852;3.816;2023-04-25T02:47:24;21.08;;;8.77;;
22764;SDS011;11549;50.852;3.816;2023-04-25T02:49:54;26.73;;;9.10;;
22764;SDS011;11549;50.852;3.816;2023-04-25T02:52:22;25.60;;;8.75;;
22764;SDS011;11549;50.852;3.816;2023-04-25T02:54:51;22.67;;;7.95;;
22764;SDS011;11549;50.852;3.816;2023-04-25T02:57:19;22.63;;;7.80;;
22764;SDS011;11549;50.852;3.816;2023-04-25T02:59:47;21.83;;;7.72;;
22764;SDS011;11549;50.852;3.816;2023-04-25T03:02:16;23.88;;;7.50;;
22764;SDS011;11549;50.852;3.816;2023-04-25T03:04:45;30.45;;;9.57;;
22764;SDS011;11549;50.852;3.816;2023-04-25T03:07:15;23.98;;;7.22;;
22764;SDS011;11549;50.852;3.816;2023-04-25T03:09:44;19.65;;;7.00;;
22764;SDS011;11549;50.852;3.816;2023-04-25T03:12:12;17.92;;;6.30;;
22764;SDS011;11549;50.852;3.816;2023-04-25T03:14:40;19.58;;;6.63;;
22764;SDS011;11549;50.852;3.816;2023-04-25T03:17:09;19.60;;;5.75;;
22764;SDS011;11549;50.852;3.816;2023-04-25T03:19:37;18.58;;;6.28;;
22764;SDS011;11549;50.852;3.816;2023-04-25T03:22:05;17.80;;;6.38;;
22764;SDS011;11549;50.852;3.816;2023-04-25T03:24:35;20.33;;;7.22;;
22764;SDS011;11549;50.852;3.816;2023-04-25T03:27:03;21.85;;;7.22;;
22764;SDS011;11549;50.852;3.816;2023-04-25T03:29:32;19.48;;;6.43;;
22764;SDS011;11549;50.852;3.816;2023-04-25T03:32:00;18.40;;;7.28;;
22764;SDS011;11549;50.852;3.816;2023-04-25T03:34:28;22.20;;;7.53;;
22764;SDS011;11549;50.852;3.816;2023-04-25T03:36:56;20.10;;;6.95;;
22764;SDS011;11549;50.852;3.816;2023-04-25T03:39:25;19.38;;;6.70;;
22764;SDS011;11549;50.852;3.816;2023-04-25T03:41:54;20.13;;;7.20;;
22764;SDS011;11549;50.852;3.816;2023-04-25T03:44:23;18.42;;;6.95;;
22764;SDS011;11549;50.852;3.816;2023-04-25T03:46:51;20.52;;;6.22;;
22764;SDS011;11549;50.852;3.816;2023-04-25T03:49:20;19.02;;;6.65;;
22764;SDS011;11549;50.852;3.816;2023-04-25T03:51:48;23.23;;;7.05;;
22764;SDS011;11549;50.852;3.816;2023-04-25T03:54:16;16.27;;;6.15;;
22764;SDS011;11549;50.852;3.816;2023-04-25T03:56:45;15.55;;;6.25;;
22764;SDS011;11549;50.852;3.816;2023-04-25T03:59:14;17.77;;;6.07;;
22764;SDS011;11549;50.852;3.816;2023-04-25T04:01:43;15.85;;;6.28;;
22764;SDS011;11549;50.852;3.816;2023-04-25T04:04:11;15.32;;;6.18;;
22764;SDS011;11549;50.852;3.816;2023-04-25T04:06:39;17.95;;;5.88;;
22764;SDS011;11549;50.852;3.816;2023-04-25T04:09:08;17.42;;;5.80;;
22764;SDS011;11549;50.852;3.816;2023-04-25T04:11:37;21.75;;;6.38;;
22764;SDS011;11549;50.852;3.816;2023-04-25T04:14:06;20.23;;;6.68;;
22764;SDS011;11549;50.852;3.816;2023-04-25T04:16:37;20.33;;;6.63;;
22764;SDS011;11549;50.852;3.816;2023-04-25T04:19:06;21.38;;;6.68;;
22764;SDS011;11549;50.852;3.816;2023-04-25T04:21:34;16.00;;;6.47;;
22764;SDS011;11549;50.852;3.816;2023-04-25T04:24:03;22.27;;;7.30;;
22764;SDS011;11549;50.852;3.816;2023-04-25T04:26:32;17.92;;;7.35;;
22764;SDS011;11549;50.852;3.816;2023-04-25T04:29:00;28.27;;;8.10;;
22764;SDS011;11549;50.852;3.816;2023-04-25T04:31:29;23.95;;;8.35;;
22764;SDS011;11549;50.852;3.816;2023-04-25T04:34:00;20.90;;;8.32;;
22764;SDS011;11549;50.852;3.816;2023-04-25T04:36:29;22.63;;;8.40;;
22764;SDS011;11549;50.852;3.816;2023-04-25T04:38:58;25.73;;;9.18;;
22764;SDS011;11549;50.852;3.816;2023-04-25T04:41:26;25.90;;;10.00;;
22764;SDS011;11549;50.852;3.816;2023-04-25T04:43:55;27.27;;;10.52;;
22764;SDS011;11549;50.852;3.816;2023-04-25T04:46:23;27.67;;;10.63;;
22764;SDS011;11549;50.852;3.816;2023-04-25T04:48:51;25.02;;;10.68;;
22764;SDS011;11549;50.852;3.816;2023-04-25T04:51:21;33.92;;;12.77;;
22764;SDS011;11549;50.852;3.816;2023-04-25T04:53:49;31.75;;;11.38;;
22764;SDS011;11549;50.852;3.816;2023-04-25T04:56:18;27.00;;;10.95;;
22764;SDS011;11549;50.852;3.816;2023-04-25T04:58:50;23.77;;;10.23;;
22764;SDS011;11549;50.852;3.816;2023-04-25T05:01:18;30.83;;;11.77;;
22764;SDS011;11549;50.852;3.816;2023-04-25T05:03:47;27.85;;;11.20;;
22764;SDS011;11549;50.852;3.816;2023-04-25T05:06:16;27.92;;;10.40;;
22764;SDS011;11549;50.852;3.816;2023-04-25T05:08:46;31.75;;;12.57;;
22764;SDS011;11549;50.852;3.816;2023-04-25T05:11:14;29.67;;;11.85;;
22764;SDS011;11549;50.852;3.816;2023-04-25T05:13:42;26.38;;;11.15;;
22764;SDS011;11549;50.852;3.816;2023-04-25T05:16:12;30.60;;;12.43;;
22764;SDS011;11549;50.852;3.816;2023-04-25T05:18:42;25.50;;;10.10;;
22764;SDS011;11549;50.852;3.816;2023-04-25T05:21:10;30.42;;;11.88;;
22764;SDS011;11549;50.852;3.816;2023-04-25T05:23:38;31.52;;;10.85;;
22764;SDS011;11549;50.852;3.816;2023-04-25T05:26:08;26.85;;;10.57;;
22764;SDS011;11549;50.852;3.816;2023-04-25T05:28:40;22.50;;;10.38;;
22764;SDS011;11549;50.852;3.816;2023-04-25T05:31:09;26.42;;;11.20;;
22764;SDS011;11549;50.852;3.816;2023-04-25T05:33:37;27.83;;;10.80;;
22764;SDS011;11549;50.852;3.816;2023-04-25T05:36:06;30.52;;;10.18;;
22764;SDS011;11549;50.852;3.816;2023-04-25T05:38:35;25.70;;;10.38;;
22764;SDS011;11549;50.852;3.816;2023-04-25T05:41:03;22.77;;;9.75;;
22764;SDS011;11549;50.852;3.816;2023-04-25T05:43:33;30.88;;;10.77;;
22764;SDS011;11549;50.852;3.816;2023-04-25T05:46:01;21.20;;;9.27;;
22764;SDS011;11549;50.852;3.816;2023-04-25T05:48:29;22.85;;;10.27;;
22764;SDS011;11549;50.852;3.816;2023-04-25T05:50:58;30.00;;;10.35;;
22764;SDS011;11549;50.852;3.816;2023-04-25T05:53:26;23.15;;;9.88;;
22764;SDS011;11549;50.852;3.816;2023-04-25T05:55:55;29.23;;;10.77;;
22764;SDS011;11549;50.852;3.816;2023-04-25T05:58:23;25.02;;;10.80;;
22764;SDS011;11549;50.852;3.816;2023-04-25T06:00:53;27.08;;;10.80;;
22764;SDS011;11549;50.852;3.816;2023-04-25T06:03:21;27.65;;;10.63;;
22764;SDS011;11549;50.852;3.816;2023-04-25T06:05:50;19.48;;;8.50;;
22764;SDS011;11549;50.852;3.816;2023-04-25T06:08:18;20.30;;;8.25;;
22764;SDS011;11549;50.852;3.816;2023-04-25T06:10:47;22.58;;;8.55;;
22764;SDS011;11549;50.852;3.816;2023-04-25T06:13:16;17.27;;;8.05;;
22764;SDS011;11549;50.852;3.816;2023-04-25T06:15:44;20.50;;;7.47;;
22764;SDS011;11549;50.852;3.816;2023-04-25T06:18:14;19.38;;;6.93;;
22764;SDS011;11549;50.852;3.816;2023-04-25T06:20:43;23.63;;;6.90;;
22764;SDS011;11549;50.852;3.816;2023-04-25T06:23:11;17.10;;;5.70;;
22764;SDS011;11549;50.852;3.816;2023-04-25T06:25:40;23.83;;;6.65;;
22764;SDS011;11549;50.852;3.816;2023-04-25T06:28:08;22.13;;;6.22;;
22764;SDS011;11549;50.852;3.816;2023-04-25T06:30:36;17.40;;;6.20;;
22764;SDS011;11549;50.852;3.816;2023-04-25T06:33:05;16.13;;;5.85;;
22764;SDS011;11549;50.852;3.816;2023-04-25T06:35:36;17.02;;;5.80;;
22764;SDS011;11549;50.852;3.816;2023-04-25T06:38:05;19.20;;;6.25;;
22764;SDS011;11549;50.852;3.816;2023-04-25T06:40:33;15.23;;;5.65;;
22764;SDS011;11549;50.852;3.816;2023-04-25T06:43:02;18.83;;;6.45;;
22764;SDS011;11549;50.852;3.816;2023-04-25T06:45:30;18.90;;;5.93;;
22764;SDS011;11549;50.852;3.816;2023-04-25T06:47:58;18.38;;;6.55;;
22764;SDS011;11549;50.852;3.816;2023-04-25T06:50:27;19.05;;;5.80;;
22764;SDS011;11549;50.852;3.816;2023-04-25T06:52:57;21.27;;;6.47;;
22764;SDS011;11549;50.852;3.816;2023-04-25T06:55:25;26.23;;;7.35;;
22764;SDS011;11549;50.852;3.816;2023-04-25T06:57:53;21.67;;;7.82;;
22764;SDS011;11549;50.852;3.816;2023-04-25T07:00:22;21.77;;;7.10;;
22764;SDS011;11549;50.852;3.816;2023-04-25T07:02:51;21.75;;;8.15;;
22764;SDS011;11549;50.852;3.816;2023-04-25T07:05:20;23.52;;;7.57;;
22764;SDS011;11549;50.852;3.816;2023-04-25T07:07:48;20.70;;;7.40;;
22764;SDS011;11549;50.852;3.816;2023-04-25T07:10:18;17.95;;;7.05;;
22764;SDS011;11549;50.852;3.816;2023-04-25T07:12:47;19.35;;;6.57;;
22764;SDS011;11549;50.852;3.816;2023-04-25T07:15:16;17.08;;;6.18;;
22764;SDS011;11549;50.852;3.816;2023-04-25T07:17:44;16.02;;;4.93;;
22764;SDS011;11549;50.852;3.816;2023-04-25T07:20:13;14.32;;;4.22;;
22764;SDS011;11549;50.852;3.816;2023-04-25T07:22:42;17.75;;;4.40;;
22764;SDS011;11549;50.852;3.816;2023-04-25T07:25:11;17.77;;;3.75;;
22764;SDS011;11549;50.852;3.816;2023-04-25T07:27:41;14.70;;;4.15;;
22764;SDS011;11549;50.852;3.816;2023-04-25T07:30:09;13.63;;;3.42;;
22764;SDS011;11549;50.852;3.816;2023-04-25T07:32:38;13.00;;;3.25;;
22764;SDS011;11549;50.852;3.816;2023-04-25T07:35:07;14.38;;;3.40;;
22764;SDS011;11549;50.852;3.816;2023-04-25T07:37:36;9.98;;;2.70;;
22764;SDS011;11549;50.852;3.816;2023-04-25T07:40:05;14.02;;;3.10;;
22764;SDS011;11549;50.852;3.816;2023-04-25T07:42:34;10.30;;;3.08;;
22764;SDS011;11549;50.852;3.816;2023-04-25T07:45:05;14.57;;;2.95;;
22764;SDS011;11549;50.852;3.816;2023-04-25T07:47:34;12.65;;;3.08;;
22764;SDS011;11549;50.852;3.816;2023-04-25T07:50:02;10.93;;;2.60;;
22764;SDS011;11549;50.852;3.816;2023-04-25T07:52:31;11.57;;;3.92;;
22764;SDS011;11549;50.852;3.816;2023-04-25T07:54:59;13.65;;;4.15;;
22764;SDS011;11549;50.852;3.816;2023-04-25T07:57:28;13.02;;;3.05;;
22764;SDS011;11549;50.852;3.816;2023-04-25T07:59:57;18.42;;;5.85;;
22764;SDS011;11549;50.852;3.816;2023-04-25T08:02:26;15.30;;;6.20;;
22764;SDS011;11549;50.852;3.816;2023-04-25T08:04:55;17.30;;;7.03;;
22764;SDS011;11549;50.852;3.816;2023-04-25T08:07:24;15.77;;;7.57;;
22764;SDS011;11549;50.852;3.816;2023-04-25T08:09:53;17.75;;;6.38;;
22764;SDS011;11549;50.852;3.816;2023-04-25T08:12:22;16.48;;;4.97;;
22764;SDS011;11549;50.852;3.816;2023-04-25T08:14:51;11.88;;;3.72;;
22764;SDS011;11549;50.852;3.816;2023-04-25T08:17:19;9.85;;;3.50;;
22764;SDS011;11549;50.852;3.816;2023-04-25T08:19:49;13.10;;;3.55;;
22764;SDS011;11549;50.852;3.816;2023-04-25T08:22:17;11.25;;;2.70;;
22764;SDS011;11549;50.852;3.816;2023-04-25T08:24:46;10.75;;;2.90;;
22764;SDS011;11549;50.852;3.816;2023-04-25T08:27:15;9.85;;;3.17;;
22764;SDS011;11549;50.852;3.816;2023-04-25T08:29:43;10.90;;;2.67;;
22764;SDS011;11549;50.852;3.816;2023-04-25T08:32:11;12.38;;;2.40;;
22764;SDS011;11549;50.852;3.816;2023-04-25T08:34:40;7.72;;;2.08;;
22764;SDS011;11549;50.852;3.816;2023-04-25T08:37:11;8.55;;;1.90;;
22764;SDS011;11549;50.852;3.816;2023-04-25T08:39:39;11.40;;;2.65;;
22764;SDS011;11549;50.852;3.816;2023-04-25T08:42:08;8.20;;;2.05;;
22764;SDS011;11549;50.852;3.816;2023-04-25T08:44:39;11.98;;;2.15;;
22764;SDS011;11549;50.852;3.816;2023-04-25T08:47:07;11.07;;;1.90;;
22764;SDS011;11549;50.852;3.816;2023-04-25T08:49:36;8.85;;;2.25;;
22764;SDS011;11549;50.852;3.816;2023-04-25T08:52:05;11.10;;;2.65;;
22764;SDS011;11549;50.852;3.816;2023-04-25T08:54:39;6.97;;;2.08;;
22764;SDS011;11549;50.852;3.816;2023-04-25T08:57:11;9.50;;;2.72;;
22764;SDS011;11549;50.852;3.816;2023-04-25T08:59:40;11.05;;;3.40;;
22764;SDS011;11549;50.852;3.816;2023-04-25T09:02:12;11.68;;;4.00;;
22764;SDS011;11549;50.852;3.816;2023-04-25T09:04:43;14.27;;;5.22;;
22764;SDS011;11549;50.852;3.816;2023-04-25T09:07:12;15.15;;;5.50;;
22764;SDS011;11549;50.852;3.816;2023-04-25T09:09:44;10.30;;;4.47;;
22764;SDS011;11549;50.852;3.816;2023-04-25T09:12:12;12.10;;;2.58;;
22764;SDS011;11549;50.852;3.816;2023-04-25T09:14:41;7.45;;;1.85;;
22764;SDS011;11549;50.852;3.816;2023-04-25T09:17:10;7.40;;;1.70;;
22764;SDS011;11549;50.852;3.816;2023-04-25T09:19:39;6.03;;;1.33;;
22764;SDS011;11549;50.852;3.816;2023-04-25T09:22:08;8.82;;;1.55;;
22764;SDS011;11549;50.852;3.816;2023-04-25T09:24:37;8.02;;;1.98;;
22764;SDS011;11549;50.852;3.816;2023-04-25T09:27:10;8.82;;;1.85;;
22764;SDS011;11549;50.852;3.816;2023-04-25T09:29:39;6.63;;;1.70;;
22764;SDS011;11549;50.852;3.816;2023-04-25T09:32:12;7.95;;;2.13;;
22764;SDS011;11549;50.852;3.816;2023-04-25T09:34:46;5.95;;;1.70;;
22764;SDS011;11549;50.852;3.816;2023-04-25T09:37:19;8.70;;;2.25;;
22764;SDS011;11549;50.852;3.816;2023-04-25T09:39:49;11.13;;;2.40;;
22764;SDS011;11549;50.852;3.816;2023-04-25T09:42:20;6.60;;;1.85;;
22764;SDS011;11549;50.852;3.816;2023-04-25T09:44:51;8.05;;;1.80;;
22764;SDS011;11549;50.852;3.816;2023-04-25T09:47:22;7.82;;;1.80;;
22764;SDS011;11549;50.852;3.816;2023-04-25T09:49:51;6.85;;;2.03;;
22764;SDS011;11549;50.852;3.816;2023-04-25T09:52:20;6.72;;;2.47;;
22764;SDS011;11549;50.852;3.816;2023-04-25T09:54:51;6.70;;;2.03;;
22764;SDS011;11549;50.852;3.816;2023-04-25T09:57:22;6.65;;;1.60;;
22764;SDS011;11549;50.852;3.816;2023-04-25T09:59:51;6.38;;;1.55;;
22764;SDS011;11549;50.852;3.816;2023-04-25T10:02:23;10.48;;;2.00;;
22764;SDS011;11549;50.852;3.816;2023-04-25T10:04:54;8.00;;;1.77;;
22764;SDS011;11549;50.852;3.816;2023-04-25T10:07:23;9.35;;;2.22;;
22764;SDS011;11549;50.852;3.816;2023-04-25T10:09:55;9.93;;;1.83;;
22764;SDS011;11549;50.852;3.816;2023-04-25T10:12:28;7.60;;;2.00;;
22764;SDS011;11549;50.852;3.816;2023-04-25T10:14:58;6.65;;;1.65;;
22764;SDS011;11549;50.852;3.816;2023-04-25T10:17:27;7.95;;;1.95;;
22764;SDS011;11549;50.852;3.816;2023-04-25T10:19:55;9.77;;;1.83;;
22764;SDS011;11549;50.852;3.816;2023-04-25T10:22:26;6.15;;;1.65;;
22764;SDS011;11549;50.852;3.816;2023-04-25T10:25:00;8.30;;;1.52;;
22764;SDS011;11549;50.852;3.816;2023-04-25T10:27:32;9.88;;;1.85;;
22764;SDS011;11549;50.852;3.816;2023-04-25T10:30:03;5.85;;;1.50;;
22764;SDS011;11549;50.852;3.816;2023-04-25T10:32:35;8.93;;;1.60;;
22764;SDS011;11549;50.852;3.816;2023-04-25T10:35:10;7.75;;;1.70;;
22764;SDS011;11549;50.852;3.816;2023-04-25T10:40:25;7.97;;;2.25;;
22764;SDS011;11549;50.852;3.816;2023-04-25T10:42:55;8.48;;;1.75;;
22764;SDS011;11549;50.852;3.816;2023-04-25T10:46:12;8.73;;;1.85;;
22764;SDS011;11549;50.852;3.816;2023-04-25T10:48:46;6.80;;;2.40;;
22764;SDS011;11549;50.852;3.816;2023-04-25T10:51:21;7.93;;;2.22;;
22764;SDS011;11549;50.852;3.816;2023-04-25T10:53:58;8.20;;;3.22;;
22764;SDS011;11549;50.852;3.816;2023-04-25T10:56:28;7.05;;;1.80;;
22764;SDS011;11549;50.852;3.816;2023-04-25T10:59:06;6.82;;;1.75;;
22764;SDS011;11549;50.852;3.816;2023-04-25T11:01:37;9.60;;;2.38;;
22764;SDS011;11549;50.852;3.816;2023-04-25T11:04:18;8.65;;;2.40;;
22764;SDS011;11549;50.852;3.816;2023-04-25T11:06:53;8.68;;;3.20;;
22764;SDS011;11549;50.852;3.816;2023-04-25T11:09:33;12.75;;;5.43;;
22764;SDS011;11549;50.852;3.816;2023-04-25T11:12:02;9.20;;;3.80;;
22764;SDS011;11549;50.852;3.816;2023-04-25T11:14:32;10.32;;;3.60;;
22764;SDS011;11549;50.852;3.816;2023-04-25T11:17:01;8.80;;;2.72;;
22764;SDS011;11549;50.852;3.816;2023-04-25T11:19:29;8.45;;;2.00;;
22764;SDS011;11549;50.852;3.816;2023-04-25T11:21:58;5.78;;;1.85;;
22764;SDS011;11549;50.852;3.816;2023-04-25T11:24:27;10.07;;;4.20;;
22764;SDS011;11549;50.852;3.816;2023-04-25T11:26:56;11.52;;;4.78;;
22764;SDS011;11549;50.852;3.816;2023-04-25T11:29:26;13.75;;;5.97;;
22764;SDS011;11549;50.852;3.816;2023-04-25T11:31:57;13.70;;;5.97;;
22764;SDS011;11549;50.852;3.816;2023-04-25T11:34:26;14.35;;;5.05;;
22764;SDS011;11549;50.852;3.816;2023-04-25T11:36:57;13.70;;;5.75;;
22764;SDS011;11549;50.852;3.816;2023-04-25T11:39:26;12.00;;;5.07;;
22764;SDS011;11549;50.852;3.816;2023-04-25T11:41:55;14.98;;;5.15;;
22764;SDS011;11549;50.852;3.816;2023-04-25T11:44:24;12.05;;;5.50;;
22764;SDS011;11549;50.852;3.816;2023-04-25T11:46:53;11.75;;;5.03;;
22764;SDS011;11549;50.852;3.816;2023-04-25T11:49:22;10.65;;;3.72;;
22764;SDS011;11549;50.852;3.816;2023-04-25T11:51:51;11.02;;;3.42;;
22764;SDS011;11549;50.852;3.816;2023-04-25T11:54:19;9.75;;;3.45;;
22764;SDS011;11549;50.852;3.816;2023-04-25T11:56:47;8.60;;;3.08;;
22764;SDS011;11549;50.852;3.816;2023-04-25T11:59:16;6.35;;;2.42;;
22764;SDS011;11549;50.852;3.816;2023-04-25T12:01:50;4.80;;;1.83;;
22764;SDS011;11549;50.852;3.816;2023-04-25T12:04:19;5.32;;;1.48;;
22764;SDS011;11549;50.852;3.816;2023-04-25T12:06:51;8.60;;;2.00;;
22764;SDS011;11549;50.852;3.816;2023-04-25T12:09:21;6.47;;;1.70;;
22764;SDS011;11549;50.852;3.816;2023-04-25T12:11:56;7.13;;;1.60;;
22764;SDS011;11549;50.852;3.816;2023-04-25T12:14:26;6.47;;;1.85;;
22764;SDS011;11549;50.852;3.816;2023-04-25T12:16:56;6.93;;;1.48;;
22764;SDS011;11549;50.852;3.816;2023-04-25T12:19:25;6.75;;;1.50;;
22764;SDS011;11549;50.852;3.816;2023-04-25T12:22:01;8.93;;;1.73;;
22764;SDS011;11549;50.852;3.816;2023-04-25T12:24:32;9.95;;;1.75;;
22764;SDS011;11549;50.852;3.816;2023-04-25T12:27:06;9.07;;;1.65;;
22764;SDS011;11549;50.852;3.816;2023-04-25T12:29:35;7.05;;;1.30;;
22764;SDS011;11549;50.852;3.816;2023-04-25T12:32:15;8.23;;;1.60;;
22764;SDS011;11549;50.852;3.816;2023-04-25T12:34:44;6.03;;;1.10;;
22764;SDS011;11549;50.852;3.816;2023-04-25T12:37:14;7.97;;;1.58;;
22764;SDS011;11549;50.852;3.816;2023-04-25T12:39:42;5.20;;;1.30;;
22764;SDS011;11549;50.852;3.816;2023-04-25T12:42:11;6.63;;;1.40;;
22764;SDS011;11549;50.852;3.816;2023-04-25T12:44:39;7.47;;;1.58;;
22764;SDS011;11549;50.852;3.816;2023-04-25T12:47:08;6.47;;;1.80;;
22764;SDS011;11549;50.852;3.816;2023-04-25T12:49:36;6.72;;;1.60;;
22764;SDS011;11549;50.852;3.816;2023-04-25T12:52:05;5.75;;;1.65;;
22764;SDS011;11549;50.852;3.816;2023-04-25T12:54:35;7.38;;;1.38;;
22764;SDS011;11549;50.852;3.816;2023-04-25T12:57:03;7.55;;;1.60;;
22764;SDS011;11549;50.852;3.816;2023-04-25T12:59:31;7.10;;;1.55;;
22764;SDS011;11549;50.852;3.816;2023-04-25T13:02:00;6.35;;;1.40;;
22764;SDS011;11549;50.852;3.816;2023-04-25T13:04:29;5.15;;;1.40;;
22764;SDS011;11549;50.852;3.816;2023-04-25T13:06:58;7.07;;;1.73;;
22764;SDS011;11549;50.852;3.816;2023-04-25T13:09:26;6.65;;;1.30;;
22764;SDS011;11549;50.852;3.816;2023-04-25T13:11:56;6.03;;;1.80;;
22764;SDS011;11549;50.852;3.816;2023-04-25T13:14:25;5.13;;;1.52;;
22764;SDS011;11549;50.852;3.816;2023-04-25T13:16:53;5.05;;;1.67;;
22764;SDS011;11549;50.852;3.816;2023-04-25T13:19:22;5.90;;;1.50;;
22764;SDS011;11549;50.852;3.816;2023-04-25T13:21:50;6.28;;;1.67;;
22764;SDS011;11549;50.852;3.816;2023-04-25T13:24:18;7.63;;;1.63;;
22764;SDS011;11549;50.852;3.816;2023-04-25T13:26:47;7.55;;;1.48;;
22764;SDS011;11549;50.852;3.816;2023-04-25T13:29:16;6.85;;;1.70;;
22764;SDS011;11549;50.852;3.816;2023-04-25T13:31:45;5.63;;;1.65;;
22764;SDS011;11549;50.852;3.816;2023-04-25T13:34:13;3.92;;;1.60;;
22764;SDS011;11549;50.852;3.816;2023-04-25T13:36:41;9.48;;;1.80;;
22764;SDS011;11549;50.852;3.816;2023-04-25T13:39:10;9.85;;;1.80;;
22764;SDS011;11549;50.852;3.816;2023-04-25T13:41:38;8.35;;;1.38;;
22764;SDS011;11549;50.852;3.816;2023-04-25T13:44:07;8.23;;;1.98;;
22764;SDS011;11549;50.852;3.816;2023-04-25T13:46:36;7.28;;;1.67;;
22764;SDS011;11549;50.852;3.816;2023-04-25T13:49:07;9.60;;;1.85;;
22764;SDS011;11549;50.852;3.816;2023-04-25T13:51:38;9.73;;;2.40;;
22764;SDS011;11549;50.852;3.816;2023-04-25T13:54:08;7.05;;;1.90;;
22764;SDS011;11549;50.852;3.816;2023-04-25T13:56:37;10.27;;;2.15;;
22764;SDS011;11549;50.852;3.816;2023-04-25T13:59:05;7.43;;;1.70;;
22764;SDS011;11549;50.852;3.816;2023-04-25T14:01:33;7.18;;;2.00;;
22764;SDS011;11549;50.852;3.816;2023-04-25T14:04:03;7.45;;;1.88;;
22764;SDS011;11549;50.852;3.816;2023-04-25T14:06:32;7.00;;;1.80;;
22764;SDS011;11549;50.852;3.816;2023-04-25T14:09:00;7.18;;;1.90;;
22764;SDS011;11549;50.852;3.816;2023-04-25T14:11:30;7.25;;;1.65;;
22764;SDS011;11549;50.852;3.816;2023-04-25T14:13:59;6.28;;;1.48;;
22764;SDS011;11549;50.852;3.816;2023-04-25T14:16:27;5.85;;;1.70;;
22764;SDS011;11549;50.852;3.816;2023-04-25T14:18:56;7.47;;;1.70;;
22764;SDS011;11549;50.852;3.816;2023-04-25T14:21:26;9.60;;;1.70;;
22764;SDS011;11549;50.852;3.816;2023-04-25T14:23:55;8.90;;;1.83;;
22764;SDS011;11549;50.852;3.816;2023-04-25T14:26:23;6.95;;;1.95;;
22764;SDS011;11549;50.852;3.816;2023-04-25T14:28:51;10.27;;;1.73;;
22764;SDS011;11549;50.852;3.816;2023-04-25T14:31:20;7.55;;;1.50;;
22764;SDS011;11549;50.852;3.816;2023-04-25T14:33:48;6.95;;;1.70;;
22764;SDS011;11549;50.852;3.816;2023-04-25T14:36:17;6.72;;;1.95;;
22764;SDS011;11549;50.852;3.816;2023-04-25T14:38:47;6.10;;;1.70;;
22764;SDS011;11549;50.852;3.816;2023-04-25T14:41:15;7.68;;;1.77;;
22764;SDS011;11549;50.852;3.816;2023-04-25T14:43:43;6.85;;;1.48;;
22764;SDS011;11549;50.852;3.816;2023-04-25T14:46:11;9.02;;;1.70;;
22764;SDS011;11549;50.852;3.816;2023-04-25T14:48:40;7.10;;;1.95;;
22764;SDS011;11549;50.852;3.816;2023-04-25T14:51:08;7.03;;;1.65;;
22764;SDS011;11549;50.852;3.816;2023-04-25T14:53:37;11.38;;;2.28;;